sensor_id;sensor_type;location;lat;lon;timestamp;P1;durP1;ratioP1;P2;durP2;ratioP2
8656;SDS011;4366;50.764;7.184;2023-05-10T00:01:25;0.70;;;0.70;;
8656;SDS011;4366;50.764;7.184;2023-05-10T00:06:27;0.53;;;0.53;;
8656;SDS011;4366;50.764;7.184;2023-05-10T00:11:29;0.47;;;0.47;;
8656;SDS011;4366;50.764;7.184;2023-05-10T00:16:30;0.70;;;0.70;;
8656;SDS011;4366;50.764;7.184;2023-05-10T00:21:32;0.70;;;0.70;;
8656;SDS011;4366;50.764;7.184;2023-05-10T00:26:34;0.77;;;0.77;;
8656;SDS011;4366;50.764;7.184;2023-05-10T00:31:37;0.60;;;0.60;;
8656;SDS011;4366;50.764;7.184;2023-05-10T00:36:38;0.67;;;0.67;;
8656;SDS011;4366;50.764;7.184;2023-05-10T00:41:41;0.60;;;0.60;;
8656;SDS011;4366;50.764;7.184;2023-05-10T00:46:42;0.90;;;0.90;;
8656;SDS011;4366;50.764;7.184;2023-05-10T00:51:46;1.10;;;1.10;;
8656;SDS011;4366;50.764;7.184;2023-05-10T00:56:48;1.10;;;1.10;;
8656;SDS011;4366;50.764;7.184;2023-05-10T01:01:50;0.87;;;0.80;;
8656;SDS011;4366;50.764;7.184;2023-05-10T01:06:52;0.90;;;0.90;;
8656;SDS011;4366;50.764;7.184;2023-05-10T01:11:55;1.20;;;1.10;;
8656;SDS011;4366;50.764;7.184;2023-05-10T01:16:57;0.83;;;0.83;;
8656;SDS011;4366;50.764;7.184;2023-05-10T01:22:04;0.90;;;0.90;;
8656;SDS011;4366;50.764;7.184;2023-05-10T01:32:49;1.10;;;1.03;;
8656;SDS011;4366;50.764;7.184;2023-05-10T01:43:22;0.90;;;0.90;;
8656;SDS011;4366;50.764;7.184;2023-05-10T01:48:28;2.80;;;0.80;;
8656;SDS011;4366;50.764;7.184;2023-05-10T01:53:30;0.70;;;0.70;;
8656;SDS011;4366;50.764;7.184;2023-05-10T01:58:32;0.63;;;0.63;;
8656;SDS011;4366;50.764;7.184;2023-05-10T02:03:35;0.70;;;0.70;;
8656;SDS011;4366;50.764;7.184;2023-05-10T02:08:38;0.50;;;0.50;;
8656;SDS011;4366;50.764;7.184;2023-05-10T02:13:41;0.60;;;0.60;;
8656;SDS011;4366;50.764;7.184;2023-05-10T02:18:44;0.60;;;0.60;;
8656;SDS011;4366;50.764;7.184;2023-05-10T02:23:48;0.80;;;0.80;;
8656;SDS011;4366;50.764;7.184;2023-05-10T02:28:49;0.63;;;0.63;;
8656;SDS011;4366;50.764;7.184;2023-05-10T02:33:52;0.80;;;0.80;;
8656;SDS011;4366;50.764;7.184;2023-05-10T02:38:56;0.70;;;0.70;;
8656;SDS011;4366;50.764;7.184;2023-05-10T02:43:59;0.97;;;0.93;;
8656;SDS011;4366;50.764;7.184;2023-05-10T02:49:04;0.70;;;0.70;;
8656;SDS011;4366;50.764;7.184;2023-05-10T02:54:12;0.70;;;0.70;;
8656;SDS011;4366;50.764;7.184;2023-05-10T02:59:19;0.70;;;0.70;;
8656;SDS011;4366;50.764;7.184;2023-05-10T03:04:21;0.77;;;0.77;;
8656;SDS011;4366;50.764;7.184;2023-05-10T03:09:23;1.23;;;1.23;;
8656;SDS011;4366;50.764;7.184;2023-05-10T03:14:29;0.80;;;0.80;;
8656;SDS011;4366;50.764;7.184;2023-05-10T03:19:51;1.10;;;1.10;;
8656;SDS011;4366;50.764;7.184;2023-05-10T03:24:56;1.43;;;1.33;;
8656;SDS011;4366;50.764;7.184;2023-05-10T03:30:03;1.00;;;1.00;;
8656;SDS011;4366;50.764;7.184;2023-05-10T03:35:11;0.90;;;0.90;;
8656;SDS011;4366;50.764;7.184;2023-05-10T03:40:14;1.00;;;1.00;;
8656;SDS011;4366;50.764;7.184;2023-05-10T03:45:17;0.90;;;0.90;;
8656;SDS011;4366;50.764;7.184;2023-05-10T03:50:19;1.53;;;1.40;;
8656;SDS011;4366;50.764;7.184;2023-05-10T03:55:21;1.50;;;1.10;;
8656;SDS011;4366;50.764;7.184;2023-05-10T04:00:24;1.33;;;1.33;;
8656;SDS011;4366;50.764;7.184;2023-05-10T04:05:28;1.63;;;1.53;;
8656;SDS011;4366;50.764;7.184;2023-05-10T04:10:30;1.83;;;1.30;;
8656;SDS011;4366;50.764;7.184;2023-05-10T04:15:32;2.00;;;1.80;;
8656;SDS011;4366;50.764;7.184;2023-05-10T04:20:34;3.40;;;1.83;;
8656;SDS011;4366;50.764;7.184;2023-05-10T04:25:35;2.10;;;1.90;;
8656;SDS011;4366;50.764;7.184;2023-05-10T04:30:37;2.20;;;2.00;;
8656;SDS011;4366;50.764;7.184;2023-05-10T04:35:39;2.27;;;1.90;;
8656;SDS011;4366;50.764;7.184;2023-05-10T04:40:41;2.00;;;1.80;;
8656;SDS011;4366;50.764;7.184;2023-05-10T04:45:42;2.87;;;2.03;;
8656;SDS011;4366;50.764;7.184;2023-05-10T04:50:44;2.67;;;2.17;;
8656;SDS011;4366;50.764;7.184;2023-05-10T04:55:46;3.10;;;2.67;;
8656;SDS011;4366;50.764;7.184;2023-05-10T05:00:48;2.83;;;2.50;;
8656;SDS011;4366;50.764;7.184;2023-05-10T05:05:50;3.67;;;2.90;;
8656;SDS011;4366;50.764;7.184;2023-05-10T05:10:51;3.67;;;3.27;;
8656;SDS011;4366;50.764;7.184;2023-05-10T05:15:53;3.70;;;3.00;;
8656;SDS011;4366;50.764;7.184;2023-05-10T05:20:55;2.77;;;2.57;;
8656;SDS011;4366;50.764;7.184;2023-05-10T05:25:57;3.20;;;2.90;;
8656;SDS011;4366;50.764;7.184;2023-05-10T05:30:59;3.30;;;2.83;;
8656;SDS011;4366;50.764;7.184;2023-05-10T05:36:04;3.90;;;2.90;;
8656;SDS011;4366;50.764;7.184;2023-05-10T05:41:07;3.53;;;3.07;;
8656;SDS011;4366;50.764;7.184;2023-05-10T05:46:08;2.83;;;2.57;;
8656;SDS011;4366;50.764;7.184;2023-05-10T05:51:10;4.87;;;3.53;;
8656;SDS011;4366;50.764;7.184;2023-05-10T05:56:12;4.37;;;3.27;;
8656;SDS011;4366;50.764;7.184;2023-05-10T06:01:14;5.23;;;3.70;;
8656;SDS011;4366;50.764;7.184;2023-05-10T06:06:15;4.93;;;3.53;;
8656;SDS011;4366;50.764;7.184;2023-05-10T06:11:19;5.97;;;3.60;;
8656;SDS011;4366;50.764;7.184;2023-05-10T06:16:22;5.83;;;3.50;;
8656;SDS011;4366;50.764;7.184;2023-05-10T06:21:24;5.57;;;3.47;;
8656;SDS011;4366;50.764;7.184;2023-05-10T06:26:26;4.93;;;3.40;;
8656;SDS011;4366;50.764;7.184;2023-05-10T06:31:28;4.60;;;3.37;;
8656;SDS011;4366;50.764;7.184;2023-05-10T06:36:30;4.27;;;3.30;;
8656;SDS011;4366;50.764;7.184;2023-05-10T06:41:32;4.60;;;3.63;;
8656;SDS011;4366;50.764;7.184;2023-05-10T06:46:33;4.63;;;3.50;;
8656;SDS011;4366;50.764;7.184;2023-05-10T06:51:35;3.20;;;2.90;;
8656;SDS011;4366;50.764;7.184;2023-05-10T06:56:37;2.93;;;2.63;;
8656;SDS011;4366;50.764;7.184;2023-05-10T07:01:38;2.30;;;2.10;;
8656;SDS011;4366;50.764;7.184;2023-05-10T07:06:41;3.23;;;2.30;;
8656;SDS011;4366;50.764;7.184;2023-05-10T07:11:42;2.73;;;2.10;;
8656;SDS011;4366;50.764;7.184;2023-05-10T07:16:44;2.33;;;1.93;;
8656;SDS011;4366;50.764;7.184;2023-05-10T07:21:46;2.27;;;2.07;;
8656;SDS011;4366;50.764;7.184;2023-05-10T07:26:48;2.67;;;2.03;;
8656;SDS011;4366;50.764;7.184;2023-05-10T07:31:49;2.17;;;1.60;;
8656;SDS011;4366;50.764;7.184;2023-05-10T07:36:51;1.87;;;1.77;;
8656;SDS011;4366;50.764;7.184;2023-05-10T07:41:54;2.10;;;1.70;;
8656;SDS011;4366;50.764;7.184;2023-05-10T07:46:56;1.90;;;1.80;;
8656;SDS011;4366;50.764;7.184;2023-05-10T07:51:57;1.67;;;1.57;;
8656;SDS011;4366;50.764;7.184;2023-05-10T07:56:59;2.27;;;2.00;;
8656;SDS011;4366;50.764;7.184;2023-05-10T08:02:01;2.30;;;1.83;;
8656;SDS011;4366;50.764;7.184;2023-05-10T08:07:03;1.67;;;1.57;;
8656;SDS011;4366;50.764;7.184;2023-05-10T08:12:05;1.63;;;1.53;;
8656;SDS011;4366;50.764;7.184;2023-05-10T08:17:07;2.20;;;1.67;;
8656;SDS011;4366;50.764;7.184;2023-05-10T08:22:09;2.00;;;1.90;;
8656;SDS011;4366;50.764;7.184;2023-05-10T08:27:11;1.53;;;1.47;;
8656;SDS011;4366;50.764;7.184;2023-05-10T08:32:13;1.60;;;1.50;;
8656;SDS011;4366;50.764;7.184;2023-05-10T08:37:15;1.60;;;1.50;;
8656;SDS011;4366;50.764;7.184;2023-05-10T08:42:19;1.70;;;1.37;;
8656;SDS011;4366;50.764;7.184;2023-05-10T08:47:24;2.50;;;1.83;;
8656;SDS011;4366;50.764;7.184;2023-05-10T08:52:26;1.67;;;1.57;;
8656;SDS011;4366;50.764;7.184;2023-05-10T08:57:29;2.33;;;1.97;;
8656;SDS011;4366;50.764;7.184;2023-05-10T09:02:31;1.70;;;1.60;;
8656;SDS011;4366;50.764;7.184;2023-05-10T09:07:33;1.97;;;1.70;;
8656;SDS011;4366;50.764;7.184;2023-05-10T09:12:36;1.60;;;1.50;;
8656;SDS011;4366;50.764;7.184;2023-05-10T09:17:40;1.53;;;1.43;;
8656;SDS011;4366;50.764;7.184;2023-05-10T09:22:42;1.33;;;1.23;;
8656;SDS011;4366;50.764;7.184;2023-05-10T09:27:46;1.27;;;1.00;;
8656;SDS011;4366;50.764;7.184;2023-05-10T09:32:48;0.80;;;0.80;;
8656;SDS011;4366;50.764;7.184;2023-05-10T09:37:52;0.70;;;0.70;;
8656;SDS011;4366;50.764;7.184;2023-05-10T09:42:56;0.70;;;0.70;;
8656;SDS011;4366;50.764;7.184;2023-05-10T09:48:00;0.70;;;0.70;;
8656;SDS011;4366;50.764;7.184;2023-05-10T09:53:03;0.60;;;0.60;;
8656;SDS011;4366;50.764;7.184;2023-05-10T09:58:05;0.70;;;0.70;;
8656;SDS011;4366;50.764;7.184;2023-05-10T10:03:21;0.70;;;0.70;;
8656;SDS011;4366;50.764;7.184;2023-05-10T10:08:23;0.60;;;0.60;;
8656;SDS011;4366;50.764;7.184;2023-05-10T10:13:26;0.80;;;0.80;;
8656;SDS011;4366;50.764;7.184;2023-05-10T10:18:28;0.90;;;0.90;;
8656;SDS011;4366;50.764;7.184;2023-05-10T10:23:31;0.77;;;0.77;;
8656;SDS011;4366;50.764;7.184;2023-05-10T10:28:36;1.53;;;1.30;;
8656;SDS011;4366;50.764;7.184;2023-05-10T10:39:29;2.40;;;2.20;;
8656;SDS011;4366;50.764;7.184;2023-05-10T10:49:42;3.73;;;2.67;;
8656;SDS011;4366;50.764;7.184;2023-05-10T10:54:50;3.53;;;2.37;;
8656;SDS011;4366;50.764;7.184;2023-05-10T11:00:20;2.73;;;2.00;;
8656;SDS011;4366;50.764;7.184;2023-05-10T11:10:38;3.23;;;2.50;;
8656;SDS011;4366;50.764;7.184;2023-05-10T11:15:43;3.53;;;2.57;;
8656;SDS011;4366;50.764;7.184;2023-05-10T11:20:50;2.77;;;1.90;;
8656;SDS011;4366;50.764;7.184;2023-05-10T11:25:52;1.83;;;1.73;;
8656;SDS011;4366;50.764;7.184;2023-05-10T11:30:55;1.40;;;1.30;;
8656;SDS011;4366;50.764;7.184;2023-05-10T11:35:58;0.70;;;0.70;;
8656;SDS011;4366;50.764;7.184;2023-05-10T11:40:59;0.90;;;0.90;;
8656;SDS011;4366;50.764;7.184;2023-05-10T11:46:01;1.20;;;1.20;;
8656;SDS011;4366;50.764;7.184;2023-05-10T11:51:04;0.77;;;0.77;;
8656;SDS011;4366;50.764;7.184;2023-05-10T11:56:09;0.90;;;0.90;;
8656;SDS011;4366;50.764;7.184;2023-05-10T12:01:11;0.93;;;0.93;;
8656;SDS011;4366;50.764;7.184;2023-05-10T12:06:13;1.20;;;1.10;;
8656;SDS011;4366;50.764;7.184;2023-05-10T12:11:15;0.90;;;0.90;;
8656;SDS011;4366;50.764;7.184;2023-05-10T12:16:17;0.80;;;0.80;;
8656;SDS011;4366;50.764;7.184;2023-05-10T12:21:27;0.80;;;0.80;;
8656;SDS011;4366;50.764;7.184;2023-05-10T12:26:29;1.07;;;1.00;;
8656;SDS011;4366;50.764;7.184;2023-05-10T12:31:31;2.27;;;0.80;;
8656;SDS011;4366;50.764;7.184;2023-05-10T12:36:33;0.83;;;0.83;;
8656;SDS011;4366;50.764;7.184;2023-05-10T12:41:39;0.60;;;0.60;;
8656;SDS011;4366;50.764;7.184;2023-05-10T12:46:43;0.40;;;0.40;;
8656;SDS011;4366;50.764;7.184;2023-05-10T12:51:45;0.70;;;0.70;;
8656;SDS011;4366;50.764;7.184;2023-05-10T12:56:47;2.73;;;0.70;;
8656;SDS011;4366;50.764;7.184;2023-05-10T13:01:49;0.57;;;0.57;;
8656;SDS011;4366;50.764;7.184;2023-05-10T13:06:50;0.97;;;0.97;;
8656;SDS011;4366;50.764;7.184;2023-05-10T13:11:52;0.70;;;0.70;;
8656;SDS011;4366;50.764;7.184;2023-05-10T13:16:55;0.70;;;0.70;;
8656;SDS011;4366;50.764;7.184;2023-05-10T13:21:57;0.63;;;0.63;;
8656;SDS011;4366;50.764;7.184;2023-05-10T13:26:59;0.70;;;0.70;;
8656;SDS011;4366;50.764;7.184;2023-05-10T13:32:01;0.60;;;0.60;;
8656;SDS011;4366;50.764;7.184;2023-05-10T13:37:02;0.77;;;0.77;;
8656;SDS011;4366;50.764;7.184;2023-05-10T13:42:04;0.73;;;0.73;;
8656;SDS011;4366;50.764;7.184;2023-05-10T13:47:06;1.00;;;1.00;;
8656;SDS011;4366;50.764;7.184;2023-05-10T13:52:08;0.73;;;0.73;;
8656;SDS011;4366;50.764;7.184;2023-05-10T13:57:11;0.80;;;0.80;;
8656;SDS011;4366;50.764;7.184;2023-05-10T14:02:14;1.20;;;1.20;;
8656;SDS011;4366;50.764;7.184;2023-05-10T14:07:16;1.17;;;1.07;;
8656;SDS011;4366;50.764;7.184;2023-05-10T14:12:19;1.10;;;1.10;;
8656;SDS011;4366;50.764;7.184;2023-05-10T14:17:20;1.03;;;1.03;;
8656;SDS011;4366;50.764;7.184;2023-05-10T14:22:23;1.17;;;1.10;;
8656;SDS011;4366;50.764;7.184;2023-05-10T14:27:25;1.10;;;1.10;;
8656;SDS011;4366;50.764;7.184;2023-05-10T14:32:26;1.40;;;1.30;;
8656;SDS011;4366;50.764;7.184;2023-05-10T14:37:29;1.50;;;1.40;;
8656;SDS011;4366;50.764;7.184;2023-05-10T14:42:30;1.00;;;1.00;;
8656;SDS011;4366;50.764;7.184;2023-05-10T14:47:33;0.87;;;0.87;;
8656;SDS011;4366;50.764;7.184;2023-05-10T14:52:34;1.10;;;1.10;;
8656;SDS011;4366;50.764;7.184;2023-05-10T14:57:37;1.10;;;1.10;;
8656;SDS011;4366;50.764;7.184;2023-05-10T15:02:38;1.30;;;1.30;;
8656;SDS011;4366;50.764;7.184;2023-05-10T15:07:42;2.40;;;1.90;;
8656;SDS011;4366;50.764;7.184;2023-05-10T15:12:45;1.93;;;1.03;;
8656;SDS011;4366;50.764;7.184;2023-05-10T15:17:47;0.87;;;0.87;;
8656;SDS011;4366;50.764;7.184;2023-05-10T15:22:49;1.00;;;1.00;;
8656;SDS011;4366;50.764;7.184;2023-05-10T15:27:51;0.97;;;0.97;;
8656;SDS011;4366;50.764;7.184;2023-05-10T15:32:52;1.23;;;1.10;;
8656;SDS011;4366;50.764;7.184;2023-05-10T15:37:54;0.97;;;0.97;;
8656;SDS011;4366;50.764;7.184;2023-05-10T15:42:56;0.90;;;0.90;;
8656;SDS011;4366;50.764;7.184;2023-05-10T15:47:58;1.00;;;1.00;;
8656;SDS011;4366;50.764;7.184;2023-05-10T15:53:02;0.77;;;0.77;;
8656;SDS011;4366;50.764;7.184;2023-05-10T15:58:04;0.70;;;0.70;;
8656;SDS011;4366;50.764;7.184;2023-05-10T16:03:06;0.97;;;0.70;;
8656;SDS011;4366;50.764;7.184;2023-05-10T16:08:09;0.53;;;0.53;;
8656;SDS011;4366;50.764;7.184;2023-05-10T16:13:10;0.63;;;0.63;;
8656;SDS011;4366;50.764;7.184;2023-05-10T16:18:12;0.90;;;0.70;;
8656;SDS011;4366;50.764;7.184;2023-05-10T16:23:15;1.07;;;0.80;;
8656;SDS011;4366;50.764;7.184;2023-05-10T16:28:17;0.90;;;0.90;;
8656;SDS011;4366;50.764;7.184;2023-05-10T16:33:22;0.90;;;0.90;;
8656;SDS011;4366;50.764;7.184;2023-05-10T16:38:24;1.03;;;1.03;;
8656;SDS011;4366;50.764;7.184;2023-05-10T16:43:25;0.70;;;0.70;;
8656;SDS011;4366;50.764;7.184;2023-05-10T16:48:28;1.10;;;1.10;;
8656;SDS011;4366;50.764;7.184;2023-05-10T16:53:29;0.93;;;0.90;;
8656;SDS011;4366;50.764;7.184;2023-05-10T16:58:32;0.70;;;0.70;;
8656;SDS011;4366;50.764;7.184;2023-05-10T17:03:34;0.90;;;0.90;;
8656;SDS011;4366;50.764;7.184;2023-05-10T17:08:37;1.37;;;1.10;;
8656;SDS011;4366;50.764;7.184;2023-05-10T17:13:38;1.90;;;0.90;;
8656;SDS011;4366;50.764;7.184;2023-05-10T17:18:40;1.10;;;1.10;;
8656;SDS011;4366;50.764;7.184;2023-05-10T17:23:42;1.10;;;1.10;;
8656;SDS011;4366;50.764;7.184;2023-05-10T17:28:45;0.80;;;0.80;;
8656;SDS011;4366;50.764;7.184;2023-05-10T17:33:46;1.00;;;1.00;;
8656;SDS011;4366;50.764;7.184;2023-05-10T17:38:48;1.00;;;1.00;;
8656;SDS011;4366;50.764;7.184;2023-05-10T17:43:50;1.13;;;1.13;;
8656;SDS011;4366;50.764;7.184;2023-05-10T17:48:52;0.90;;;0.90;;
8656;SDS011;4366;50.764;7.184;2023-05-10T17:53:54;0.97;;;0.97;;
8656;SDS011;4366;50.764;7.184;2023-05-10T17:58:56;1.00;;;1.00;;
8656;SDS011;4366;50.764;7.184;2023-05-10T18:03:57;0.90;;;0.90;;
8656;SDS011;4366;50.764;7.184;2023-05-10T18:08:59;1.43;;;0.80;;
8656;SDS011;4366;50.764;7.184;2023-05-10T18:14:01;0.70;;;0.70;;
8656;SDS011;4366;50.764;7.184;2023-05-10T18:19:03;0.57;;;0.57;;
8656;SDS011;4366;50.764;7.184;2023-05-10T18:24:05;0.90;;;0.90;;
8656;SDS011;4366;50.764;7.184;2023-05-10T18:29:06;0.97;;;0.97;;
8656;SDS011;4366;50.764;7.184;2023-05-10T18:34:08;1.00;;;0.90;;
8656;SDS011;4366;50.764;7.184;2023-05-10T18:39:11;1.17;;;1.13;;
8656;SDS011;4366;50.764;7.184;2023-05-10T18:44:13;0.80;;;0.80;;
8656;SDS011;4366;50.764;7.184;2023-05-10T18:49:15;1.00;;;1.00;;
8656;SDS011;4366;50.764;7.184;2023-05-10T18:54:17;1.30;;;1.20;;
8656;SDS011;4366;50.764;7.184;2023-05-10T18:59:19;0.87;;;0.87;;
8656;SDS011;4366;50.764;7.184;2023-05-10T19:04:20;1.23;;;1.23;;
8656;SDS011;4366;50.764;7.184;2023-05-10T19:09:22;0.80;;;0.80;;
8656;SDS011;4366;50.764;7.184;2023-05-10T19:14:24;0.90;;;0.90;;
8656;SDS011;4366;50.764;7.184;2023-05-10T19:19:26;0.70;;;0.70;;
8656;SDS011;4366;50.764;7.184;2023-05-10T19:24:28;1.10;;;1.10;;
8656;SDS011;4366;50.764;7.184;2023-05-10T19:29:29;1.03;;;1.03;;
8656;SDS011;4366;50.764;7.184;2023-05-10T19:34:32;1.10;;;1.10;;
8656;SDS011;4366;50.764;7.184;2023-05-10T19:39:34;0.97;;;0.97;;
8656;SDS011;4366;50.764;7.184;2023-05-10T19:44:35;1.20;;;1.20;;
8656;SDS011;4366;50.764;7.184;2023-05-10T19:49:37;1.87;;;1.60;;
8656;SDS011;4366;50.764;7.184;2023-05-10T19:54:39;2.97;;;2.30;;
8656;SDS011;4366;50.764;7.184;2023-05-10T19:59:40;2.10;;;1.77;;
8656;SDS011;4366;50.764;7.184;2023-05-10T20:04:42;2.37;;;1.70;;
8656;SDS011;4366;50.764;7.184;2023-05-10T20:09:44;1.50;;;1.40;;
8656;SDS011;4366;50.764;7.184;2023-05-10T20:14:46;1.63;;;1.53;;
8656;SDS011;4366;50.764;7.184;2023-05-10T20:19:47;1.83;;;1.73;;
8656;SDS011;4366;50.764;7.184;2023-05-10T20:24:49;2.00;;;1.80;;
8656;SDS011;4366;50.764;7.184;2023-05-10T20:29:51;2.07;;;1.97;;
8656;SDS011;4366;50.764;7.184;2023-05-10T20:34:53;1.77;;;1.67;;
8656;SDS011;4366;50.764;7.184;2023-05-10T20:39:55;1.63;;;1.53;;
8656;SDS011;4366;50.764;7.184;2023-05-10T20:44:57;1.73;;;1.63;;
8656;SDS011;4366;50.764;7.184;2023-05-10T20:49:58;1.23;;;1.13;;
8656;SDS011;4366;50.764;7.184;2023-05-10T20:55:00;1.90;;;1.80;;
8656;SDS011;4366;50.764;7.184;2023-05-10T21:00:01;2.30;;;1.60;;
8656;SDS011;4366;50.764;7.184;2023-05-10T21:05:04;1.50;;;1.40;;
8656;SDS011;4366;50.764;7.184;2023-05-10T21:10:06;1.70;;;1.60;;
8656;SDS011;4366;50.764;7.184;2023-05-10T21:15:09;1.70;;;1.60;;
8656;SDS011;4366;50.764;7.184;2023-05-10T21:20:11;1.70;;;1.60;;
8656;SDS011;4366;50.764;7.184;2023-05-10T21:25:13;1.50;;;1.40;;
8656;SDS011;4366;50.764;7.184;2023-05-10T21:30:14;1.20;;;1.20;;
8656;SDS011;4366;50.764;7.184;2023-05-10T21:35:17;1.20;;;1.20;;
8656;SDS011;4366;50.764;7.184;2023-05-10T21:40:18;1.90;;;1.80;;
8656;SDS011;4366;50.764;7.184;2023-05-10T21:45:20;2.03;;;1.93;;
8656;SDS011;4366;50.764;7.184;2023-05-10T21:50:22;2.23;;;1.90;;
8656;SDS011;4366;50.764;7.184;2023-05-10T21:55:24;1.80;;;1.70;;
8656;SDS011;4366;50.764;7.184;2023-05-10T22:00:26;1.63;;;1.53;;
8656;SDS011;4366;50.764;7.184;2023-05-10T22:05:28;1.37;;;1.30;;
8656;SDS011;4366;50.764;7.184;2023-05-10T22:10:29;1.60;;;1.50;;
8656;SDS011;4366;50.764;7.184;2023-05-10T22:15:31;1.60;;;1.50;;
8656;SDS011;4366;50.764;7.184;2023-05-10T22:20:36;1.53;;;1.43;;
8656;SDS011;4366;50.764;7.184;2023-05-10T22:25:38;1.63;;;1.57;;
8656;SDS011;4366;50.764;7.184;2023-05-10T22:30:40;1.20;;;1.20;;
8656;SDS011;4366;50.764;7.184;2023-05-10T22:35:43;1.47;;;1.37;;
8656;SDS011;4366;50.764;7.184;2023-05-10T22:40:44;1.37;;;1.27;;
8656;SDS011;4366;50.764;7.184;2023-05-10T22:45:46;1.47;;;1.47;;
8656;SDS011;4366;50.764;7.184;2023-05-10T22:50:48;1.40;;;1.40;;
8656;SDS011;4366;50.764;7.184;2023-05-10T22:55:50;0.90;;;0.90;;
8656;SDS011;4366;50.764;7.184;2023-05-10T23:00:53;0.83;;;0.83;;
8656;SDS011;4366;50.764;7.184;2023-05-10T23:05:55;0.70;;;0.70;;
8656;SDS011;4366;50.764;7.184;2023-05-10T23:10:57;0.70;;;0.70;;
8656;SDS011;4366;50.764;7.184;2023-05-10T23:16:03;1.23;;;0.73;;
8656;SDS011;4366;50.764;7.184;2023-05-10T23:21:08;0.67;;;0.67;;
8656;SDS011;4366;50.764;7.184;2023-05-10T23:26:09;1.60;;;0.50;;
8656;SDS011;4366;50.764;7.184;2023-05-10T23:31:11;0.60;;;0.60;;
8656;SDS011;4366;50.764;7.184;2023-05-10T23:36:13;0.43;;;0.43;;
8656;SDS011;4366;50.764;7.184;2023-05-10T23:41:14;0.50;;;0.50;;
8656;SDS011;4366;50.764;7.184;2023-05-10T23:46:16;0.60;;;0.60;;
8656;SDS011;4366;50.764;7.184;2023-05-10T23:51:18;0.40;;;0.40;;
8656;SDS011;4366;50.764;7.184;2023-05-10T23:56:19;0.50;;;0.50;;
